Time;durP1;ratioP1;P1;durP2;ratioP2;P2;SDS_P1;SDS_P2;PMS_P1;PMS_P2;Temp;Humidity;BMP_temperature;BMP_pressure;BME280_temperature;BME280_humidity;BME280_pressure;Samples;Min_cycle;Max_cycle;Signal;HPM_P1;HPM_P2
2022/02/01 00:01:58;;;;;;;3.93;3.60;;;3.10;99.90;;;1.59;95.44;97525.03;5093198;28;20439;-74
2022/02/01 00:04:34;;;;;;;3.20;3.00;;;3.10;99.70;;;1.54;95.29;97533.56;5093013;28;20851;-72
2022/02/01 00:07:11;;;;;;;5.90;2.97;;;3.10;99.00;;;1.60;94.98;97545.38;5095336;28;20432;-72
2022/02/01 00:09:48;;;;;;;2.57;2.37;;;3.10;99.00;;;1.58;94.95;97541.19;5113226;28;20857;-72
2022/02/01 00:12:24;;;;;;;4.20;2.37;;;3.10;99.30;;;1.55;95.33;97558.34;5098382;28;20454;-72
2022/02/01 00:15:16;;;;;;;2.47;2.27;;;3.10;99.00;;;1.50;95.53;97568.69;5113755;28;20796;-72
2022/02/01 00:18:03;;;;;;;1.43;1.33;;;3.10;99.90;;;1.19;93.63;97564.03;5096261;28;20820;-72
2022/02/01 00:34:36;;;;;;;1.93;1.60;;;2.70;99.50;;;0.95;95.97;97613.56;5100178;28;20473;-73
2022/02/01 00:37:08;;;;;;;2.50;1.60;;;2.50;99.90;;;0.88;95.98;97620.56;5097537;28;20427;-74
2022/02/01 00:39:42;;;;;;;1.30;1.07;;;2.50;99.90;;;0.80;95.65;97627.50;5096208;28;20452;-74
2022/02/01 00:42:11;;;;;;;2.30;1.30;;;2.40;99.90;;;0.78;95.02;97624.19;5097186;28;20909;-74
2022/02/01 00:44:39;;;;;;;0.83;0.73;;;2.30;98.60;;;0.62;95.69;97630.31;5097582;28;20437;-74
2022/02/01 00:47:06;;;;;;;1.60;0.90;;;2.20;99.90;;;0.50;95.84;97627.09;5096061;28;20473;-74
2022/02/01 00:49:35;;;;;;;1.10;1.00;;;2.10;99.90;;;0.52;95.13;97646.38;5095770;28;20801;-74
2022/02/01 00:52:04;;;;;;;0.73;0.63;;;2.10;99.60;;;0.46;96.03;97668.28;5096952;28;20499;-75
2022/02/01 00:54:31;;;;;;;0.70;0.70;;;2.10;99.90;;;0.48;96.20;97670.78;5095922;28;20553;-74
2022/02/01 00:56:58;;;;;;;0.83;0.83;;;2.10;99.90;;;0.41;96.69;97673.25;5097367;28;20510;-76
2022/02/01 00:59:27;;;;;;;1.00;0.87;;;2.00;99.90;;;0.33;97.50;97678.50;5097602;28;20441;-73
2022/02/01 01:01:54;;;;;;;0.93;0.90;;;1.90;99.90;;;0.37;97.65;97691.34;5096936;28;20529;-75
2022/02/01 01:04:21;;;;;;;3.03;0.93;;;1.90;99.90;;;0.32;97.94;97692.81;5112551;28;20441;-75
2022/02/01 01:06:48;;;;;;;1.10;1.00;;;1.90;99.90;;;0.35;97.91;97703.09;5095999;28;20434;-75
2022/02/01 01:09:16;;;;;;;1.10;0.83;;;1.90;99.90;;;0.23;97.78;97690.13;5096676;28;20468;-74
2022/02/01 01:11:43;;;;;;;1.10;1.00;;;1.90;99.90;;;0.37;98.43;97709.09;5095549;28;20443;-75
2022/02/01 01:14:43;;;;;;;1.10;1.00;;;1.90;99.90;;;0.38;98.09;97705.44;5096403;28;20435;-75
2022/02/01 01:44:49;;;;;;;2.77;2.57;;;2.00;99.90;;;0.43;96.85;97796.19;5096831;28;20911;-74
2022/02/01 01:53:12;;;;;;;4.47;3.80;;;2.00;98.40;;;0.38;92.74;97799.31;5094603;28;20440;-74
2022/02/01 01:55:43;;;;;;;4.20;3.37;;;2.00;94.20;;;0.45;92.85;97807.50;5096425;28;20468;-75
2022/02/01 01:58:10;;;;;;;5.70;4.20;;;2.00;94.50;;;0.34;91.96;97781.19;5096385;28;20939;-75
2022/02/01 02:01:00;;;;;;;3.73;3.40;;;2.00;93.20;;;0.41;92.53;97804.31;5094888;28;20466;-74
2022/02/01 02:03:28;;;;;;;4.73;3.87;;;1.90;94.20;;;0.24;92.64;97790.09;5094617;28;20445;-74
2022/02/01 02:05:56;;;;;;;4.77;4.03;;;1.90;94.30;;;0.26;92.91;97817.34;5094106;28;20944;-74
2022/02/01 02:08:24;;;;;;;3.97;3.30;;;1.90;93.90;;;0.25;92.55;97809.53;5094538;28;20454;-74
2022/02/01 02:10:57;;;;;;;5.13;4.30;;;1.80;93.90;;;0.21;92.01;97818.81;5110816;28;20908;-74
2022/02/01 02:16:09;;;;;;;4.30;3.63;;;1.80;92.30;;;0.16;92.13;97821.09;5093974;28;20525;-74
2022/02/01 02:18:36;;;;;;;4.87;3.43;;;1.80;93.10;;;0.08;91.73;97824.53;5095841;28;20540;-75
2022/02/01 02:21:06;;;;;;;4.67;3.63;;;1.70;92.80;;;0.07;91.82;97825.47;5095443;28;20448;-74
2022/02/01 02:23:34;;;;;;;4.10;3.60;;;1.70;92.70;;;-0.04;91.65;97819.44;5095578;28;20443;-74
2022/02/01 02:26:06;;;;;;;4.10;3.70;;;1.60;92.40;;;0.04;91.29;97833.75;5095272;28;20488;-73
2022/02/01 02:28:33;;;;;;;4.63;3.63;;;1.60;92.40;;;0.07;91.95;97838.75;5095451;28;20438;-72
2022/02/01 02:31:02;;;;;;;5.40;3.53;;;1.60;93.00;;;-0.02;92.39;97833.41;5094949;28;20453;-73
2022/02/01 02:33:31;;;;;;;5.00;4.33;;;1.70;93.50;;;0.04;92.94;97849.69;5095046;28;20841;-73
2022/02/01 02:36:05;;;;;;;4.90;3.60;;;1.60;94.30;;;0.11;92.61;97864.06;5095156;28;20464;-73
2022/02/01 02:38:39;;;;;;;3.93;3.63;;;1.70;94.30;;;0.12;92.46;97857.75;5094829;28;20432;-73
2022/02/01 02:41:28;;;;;;;4.90;3.80;;;1.70;93.60;;;0.13;91.63;97856.78;5110810;28;20444;-73
2022/02/01 02:46:45;;;;;;;6.53;4.20;;;1.80;92.00;;;0.20;90.51;97880.91;5095498;28;20417;-74
2022/02/01 02:49:16;;;;;;;5.57;5.00;;;1.80;91.80;;;0.27;90.35;97888.13;5110982;28;20474;-74
2022/02/01 02:51:43;;;;;;;5.00;4.10;;;1.80;91.40;;;0.21;90.27;97888.72;5110975;28;20921;-74
2022/02/01 02:54:14;;;;;;;5.80;4.50;;;1.80;91.20;;;0.25;90.36;97898.06;5093250;28;20536;-74
2022/02/01 02:56:44;;;;;;;4.50;3.90;;;1.80;91.20;;;0.27;89.31;97890.78;5094406;28;20460;-74
2022/02/01 02:59:13;;;;;;;5.93;4.37;;;1.90;90.50;;;0.19;89.29;97885.38;5094323;28;20464;-74
2022/02/01 03:01:41;;;;;;;4.57;4.00;;;1.90;90.30;;;0.24;89.39;97888.44;5093055;28;20813;-74
2022/02/01 03:04:08;;;;;;;6.30;5.03;;;1.90;90.30;;;0.24;89.74;97906.19;5093254;28;20434;-74
2022/02/01 03:06:36;;;;;;;4.30;3.80;;;1.80;90.40;;;0.19;89.42;97892.53;5094139;28;20773;-74
2022/02/01 03:09:03;;;;;;;5.90;4.70;;;1.80;90.70;;;0.21;89.90;97907.31;5094468;28;20441;-74
2022/02/01 03:11:31;;;;;;;4.93;4.10;;;1.80;91.00;;;0.26;89.61;97915.69;5093231;28;20790;-74
2022/02/01 03:14:01;;;;;;;5.57;4.90;;;1.90;91.10;;;0.36;90.22;97944.00;5094547;28;20438;-74
2022/02/01 03:21:53;;;;;;;5.03;4.53;;;1.90;91.60;;;-0.34;90.87;97850.69;5100613;28;20433;-71
2022/02/01 03:24:20;;;;;;;7.90;5.30;;;1.90;92.00;;;0.21;90.90;97936.56;5095369;28;20519;-71
2022/02/01 03:26:49;;;;;;;8.30;5.57;;;1.80;92.00;;;0.23;90.94;97947.88;5092886;28;20866;-72
2022/02/01 03:29:16;;;;;;;7.20;5.40;;;1.80;91.90;;;0.23;91.10;97939.06;5092666;28;20472;-72
2022/02/01 03:31:43;;;;;;;6.97;5.63;;;1.80;92.10;;;0.25;90.26;97937.94;5094085;28;20471;-72
2022/02/01 03:34:10;;;;;;;7.40;6.03;;;1.90;92.20;;;0.25;91.23;97958.34;5094165;28;20432;-73
2022/02/01 03:36:37;;;;;;;8.20;5.37;;;1.80;92.00;;;0.20;91.44;97945.50;5093913;28;20949;-72
2022/02/01 03:39:04;;;;;;;8.23;6.27;;;1.80;92.20;;;0.21;90.91;97941.03;5094805;28;20524;-73
2022/02/01 03:41:31;;;;;;;7.10;5.30;;;1.80;92.50;;;0.17;90.84;97935.19;5093844;28;20429;-72
2022/02/01 03:44:00;;;;;;;7.90;6.50;;;1.80;91.80;;;0.16;90.44;97941.50;5092747;28;20532;-72
2022/02/01 03:46:27;;;;;;;8.33;6.60;;;1.70;91.40;;;0.23;90.68;97928.44;5092945;28;20932;-72
2022/02/01 03:48:54;;;;;;;9.47;6.57;;;1.70;91.90;;;0.15;89.93;97937.16;5094376;28;20923;-72
2022/02/01 03:51:21;;;;;;;8.80;6.37;;;1.70;91.30;;;0.20;89.65;97945.50;5110171;28;20461;-72
2022/02/01 03:53:48;;;;;;;9.33;5.90;;;1.80;91.40;;;0.19;90.00;97945.69;5094119;28;20446;-73
2022/02/01 03:56:15;;;;;;;9.03;6.63;;;1.70;91.30;;;0.07;89.52;97950.34;5094318;28;20472;-72
2022/02/01 03:58:42;;;;;;;8.20;6.10;;;1.70;90.40;;;-0.03;89.57;97930.03;5092219;28;21016;-72
2022/02/01 04:01:11;;;;;;;8.73;6.80;;;1.60;90.30;;;0.03;89.26;97947.19;5093815;28;20473;-72
2022/02/01 04:03:38;;;;;;;11.00;6.80;;;1.60;90.30;;;-0.06;89.39;97943.59;5093458;28;20535;-72
2022/02/01 04:06:05;;;;;;;10.30;7.13;;;1.60;90.50;;;-0.06;88.90;97950.72;5092264;28;20529;-71
2022/02/01 04:08:32;;;;;;;12.67;8.00;;;1.60;90.10;;;-0.05;89.58;97952.41;5093558;28;21003;-72
2022/02/01 04:10:59;;;;;;;11.20;6.27;;;1.50;90.60;;;-0.08;89.05;97950.88;5092126;28;20522;-72
2022/02/01 04:13:26;;;;;;;10.53;6.57;;;1.50;90.20;;;-0.11;88.24;97945.84;5093914;28;20532;-72
2022/02/01 04:15:53;;;;;;;9.00;6.90;;;1.50;89.30;;;-0.01;88.24;97951.94;5092353;28;20501;-72
2022/02/01 04:18:21;;;;;;;9.77;7.27;;;1.60;89.50;;;-0.04;87.94;97954.91;5092395;28;20469;-73
2022/02/01 04:20:49;;;;;;;10.67;7.10;;;1.60;88.80;;;0.07;87.71;97953.00;5092478;28;20539;-73
2022/02/01 04:23:15;;;;;;;13.00;8.73;;;1.60;88.40;;;-0.01;88.17;97959.94;5093246;28;20494;-73
2022/02/01 04:25:42;;;;;;;13.03;8.10;;;1.60;89.00;;;0.07;88.20;97974.25;5093176;28;20465;-73
2022/02/01 04:28:10;;;;;;;11.93;9.00;;;1.60;89.30;;;0.05;88.40;97976.25;5092234;28;20531;-72
2022/02/01 04:30:37;;;;;;;13.00;9.20;;;1.60;89.80;;;0.05;88.61;97974.44;5092602;28;20441;-72
2022/02/01 04:33:07;;;;;;;15.17;10.03;;;1.60;90.00;;;0.12;88.72;97972.00;5093394;28;20441;-74
2022/02/01 04:35:37;;;;;;;16.80;9.90;;;1.70;90.40;;;0.18;88.81;97973.25;5092890;28;20554;-74
2022/02/01 04:38:04;;;;;;;16.50;10.07;;;1.70;90.40;;;0.17;88.90;97971.56;5093689;28;20872;-74
2022/02/01 04:40:33;;;;;;;17.30;10.20;;;1.80;90.40;;;0.23;88.34;97971.81;5092315;28;20474;-74
2022/02/01 04:43:02;;;;;;;15.93;10.27;;;1.80;90.20;;;0.21;88.90;97978.25;5091902;28;20433;-74
2022/02/01 04:45:30;;;;;;;15.50;9.23;;;1.80;90.40;;;0.14;89.68;97983.31;5093574;28;20902;-73
2022/02/01 04:47:57;;;;;;;16.00;10.07;;;1.70;91.00;;;0.15;90.46;97977.03;5092082;28;20778;-72
2022/02/01 04:50:26;;;;;;;15.83;10.40;;;1.70;91.60;;;0.11;91.58;97983.63;5092103;28;20491;-71
2022/02/01 04:52:55;;;;;;;20.00;11.30;;;1.70;92.70;;;-0.06;92.21;97986.09;5093421;28;20434;-73
2022/02/01 04:55:27;;;;;;;15.40;10.63;;;1.50;93.60;;;-0.07;92.64;97988.91;5112571;28;20532;-74
2022/02/01 04:57:55;;;;;;;18.07;11.03;;;1.50;94.70;;;-0.16;93.59;97982.66;5097154;28;20435;-74
2022/02/01 05:00:29;;;;;;;19.07;10.70;;;1.40;95.80;;;-0.26;94.14;97977.41;5097004;28;20468;-73
2022/02/01 05:02:56;;;;;;;16.87;11.40;;;1.40;96.50;;;-0.20;94.03;97966.19;5096998;28;20518;-73
2022/02/01 05:05:28;;;;;;;20.17;11.57;;;1.40;97.30;;;-0.19;94.01;97972.34;5096738;28;20497;-73
2022/02/01 05:07:59;;;;;;;18.27;11.30;;;1.50;96.80;;;-0.14;93.68;97991.31;5097109;28;20507;-72
2022/02/01 05:10:27;;;;;;;16.40;10.10;;;1.40;96.70;;;-0.16;93.07;97988.78;5097078;28;20461;-73
2022/02/01 05:12:56;;;;;;;17.73;11.40;;;1.50;96.00;;;-0.12;93.06;97984.03;5096377;28;20846;-72
2022/02/01 05:15:23;;;;;;;15.67;10.57;;;1.50;94.90;;;0.01;92.08;98004.09;5096385;28;20443;-73
2022/02/01 05:17:53;;;;;;;15.60;10.40;;;1.50;94.10;;;0.07;92.01;98017.63;5096772;28;20519;-73
2022/02/01 05:20:27;;;;;;;19.60;9.27;;;1.60;93.60;;;0.12;90.91;98017.19;5096400;28;20468;-72
2022/02/01 05:22:54;;;;;;;15.80;9.73;;;1.70;92.70;;;0.04;91.59;98027.72;5096833;28;20466;-72
2022/02/01 05:25:28;;;;;;;16.53;11.00;;;1.60;93.00;;;0.04;91.71;98046.31;5096761;28;20526;-72
2022/02/01 05:27:58;;;;;;;15.87;10.70;;;1.60;93.30;;;-0.05;93.13;98038.25;5096246;28;20444;-72
2022/02/01 05:30:27;;;;;;;15.53;10.33;;;1.50;94.90;;;-0.20;94.11;98045.84;5094963;28;20508;-72
2022/02/01 05:32:54;;;;;;;17.50;11.67;;;1.40;97.00;;;-0.14;94.95;98044.44;5096286;28;20488;-72
2022/02/01 05:35:22;;;;;;;18.07;10.47;;;1.40;99.30;;;-0.15;95.13;98038.31;5096120;28;20476;-71
2022/02/01 05:37:49;;;;;;;20.23;11.40;;;1.40;99.90;;;-0.28;95.78;98019.22;5096798;28;20480;-72
2022/02/01 05:40:16;;;;;;;17.77;10.70;;;1.40;99.90;;;-0.29;96.43;98025.50;5094559;28;20496;-72
2022/02/01 05:42:55;;;;;;;17.80;11.67;;;1.30;99.90;;;-0.41;97.25;98006.25;5094469;28;20443;-70
2022/02/01 05:45:22;;;;;;;17.40;11.30;;;1.30;99.90;;;-0.34;97.59;98001.19;5096261;28;20523;-71
2022/02/01 05:47:50;;;;;;;20.33;11.53;;;1.30;99.90;;;-0.82;97.96;97923.44;5096190;28;20982;-85
2022/02/01 05:50:17;;;;;;;18.63;10.03;;;1.30;99.90;;;-0.19;97.74;98020.13;5099340;28;20439;-72
2022/02/01 05:52:45;;;;;;;16.20;10.93;;;1.30;99.90;;;-0.13;97.57;98011.56;5095377;28;20993;-72
2022/02/01 05:55:14;;;;;;;15.73;10.37;;;1.40;99.90;;;-0.14;97.52;98015.22;5094345;28;20454;-71
2022/02/01 05:57:41;;;;;;;14.17;9.83;;;1.40;99.90;;;-0.22;98.20;98015.94;5093854;28;20464;-73
2022/02/01 06:00:10;;;;;;;15.47;10.00;;;1.40;99.90;;;-0.13;97.91;98021.38;5095674;28;20433;-72
2022/02/01 06:02:37;;;;;;;16.70;10.50;;;1.40;99.90;;;-0.16;97.93;98015.34;5095499;28;20443;-71
2022/02/01 06:05:05;;;;;;;13.10;9.13;;;1.50;99.90;;;0.02;98.05;98017.25;5110854;28;20931;-82
2022/02/01 06:07:33;;;;;;;14.70;8.83;;;1.50;99.90;;;-0.30;97.34;97942.34;5112920;28;20736;-83
2022/02/01 06:10:00;;;;;;;14.50;7.87;;;1.60;99.90;;;0.23;96.43;98014.34;5096534;28;20437;-81
2022/02/01 06:12:27;;;;;;;13.07;8.50;;;1.80;99.90;;;0.10;95.86;97998.72;5095695;28;20432;-81
2022/02/01 06:14:54;;;;;;;11.70;7.00;;;1.80;99.90;;;0.28;95.88;98022.69;5112107;28;20458;-80
2022/02/01 06:17:22;;;;;;;11.30;7.97;;;1.90;99.90;;;0.32;95.50;98023.22;5094533;28;20522;-79
2022/02/01 06:19:49;;;;;;;12.33;7.20;;;1.90;99.90;;;0.31;95.22;98021.56;5112603;28;20526;-82
2022/02/01 06:22:16;;;;;;;9.77;5.97;;;1.90;99.60;;;0.39;94.40;98034.91;5094994;28;20445;-79
2022/02/01 06:24:43;;;;;;;10.07;6.00;;;1.90;97.50;;;0.30;93.72;98029.66;5095702;28;20440;-81
2022/02/01 06:27:10;;;;;;;10.93;6.37;;;2.00;95.40;;;0.45;93.56;98045.94;5095642;28;20429;-80
2022/02/01 06:29:37;;;;;;;16.50;6.97;;;2.00;96.10;;;0.45;93.93;98057.41;5096128;28;20967;-78
2022/02/01 06:32:06;;;;;;;10.23;5.90;;;2.00;96.40;;;0.50;92.73;98051.66;5094992;28;20494;-79
2022/02/01 06:34:34;;;;;;;8.80;6.00;;;2.10;94.40;;;0.47;92.46;98058.09;5096271;28;20528;-78
2022/02/01 06:37:01;;;;;;;12.23;5.07;;;2.10;94.00;;;0.51;92.57;98055.97;5095210;28;20577;-76
2022/02/01 06:39:28;;;;;;;9.13;6.27;;;2.10;94.00;;;0.47;92.61;98041.31;5094841;28;20774;-76
2022/02/01 06:41:55;;;;;;;10.70;5.00;;;2.10;93.70;;;0.54;91.61;98045.88;5094772;28;20468;-76
2022/02/01 06:44:22;;;;;;;9.20;5.27;;;2.10;92.80;;;0.49;91.32;98053.47;5095286;28;20719;-76
2022/02/01 06:46:49;;;;;;;11.53;5.93;;;2.10;92.40;;;0.55;90.90;98055.53;5095155;28;20481;-76
2022/02/01 06:49:16;;;;;;;8.33;4.67;;;2.10;92.20;;;0.55;90.31;98060.00;5093302;28;20450;-76
2022/02/01 06:51:45;;;;;;;10.07;4.57;;;2.20;91.20;;;0.58;90.03;98078.31;5094492;28;20917;-75
2022/02/01 06:54:13;;;;;;;16.93;4.20;;;2.20;91.20;;;0.58;89.39;98080.16;5109539;28;20520;-74
2022/02/01 06:56:42;;;;;;;9.27;4.20;;;2.20;90.80;;;0.54;89.36;98068.97;5092950;28;20464;-74
2022/02/01 06:59:09;;;;;;;17.13;5.03;;;2.20;90.70;;;0.72;88.56;98097.41;5092563;28;20500;-73
2022/02/01 07:01:36;;;;;;;9.90;4.30;;;2.20;90.10;;;0.73;89.23;98110.56;5094391;28;20442;-73
2022/02/01 07:04:04;;;;;;;18.57;4.67;;;2.30;90.60;;;0.69;88.45;98118.00;5094158;28;20920;-74
2022/02/01 07:06:33;;;;;;;11.40;5.50;;;2.30;90.00;;;0.73;88.17;98152.25;5092847;28;20545;-73
2022/02/01 07:09:04;;;;;;;8.13;3.50;;;2.30;89.40;;;0.67;87.72;98143.91;5094787;28;20434;-72
2022/02/01 07:11:31;;;;;;;15.43;2.90;;;2.30;88.40;;;0.75;87.64;98164.44;5088399;28;20963;-69
2022/02/01 07:13:59;;;;;;;12.40;3.93;;;2.30;88.60;;;0.70;87.10;98164.06;5094002;28;20465;-73
2022/02/01 07:16:26;;;;;;;15.60;3.73;;;2.30;87.40;;;0.69;86.99;98157.88;5091610;28;21011;-74
2022/02/01 07:18:53;;;;;;;6.53;3.30;;;2.30;86.90;;;0.69;86.73;98143.78;5094118;28;20439;-72
2022/02/01 07:21:21;;;;;;;9.30;3.70;;;2.30;86.50;;;-0.15;85.74;98000.25;5093608;28;20473;-70
2022/02/01 07:23:48;;;;;;;12.67;3.57;;;2.30;85.10;;;0.73;85.42;98138.97;5094199;28;20445;-71
2022/02/01 07:26:18;;;;;;;7.47;2.80;;;2.30;84.70;;;0.72;84.89;98135.50;5109216;28;20478;-72
2022/02/01 07:28:47;;;;;;;14.23;3.60;;;2.30;83.70;;;0.32;83.81;98086.16;5093998;28;20430;-80
2022/02/01 07:31:14;;;;;;;14.60;4.00;;;2.30;82.30;;;0.74;83.02;98154.78;5092986;28;20499;-78
2022/02/01 07:33:41;;;;;;;15.93;4.23;;;2.30;81.30;;;0.71;82.98;98155.09;5111509;28;20454;-77
2022/02/01 07:36:10;;;;;;;15.70;4.70;;;2.30;81.60;;;0.72;82.00;98148.78;5094122;28;20469;-77
2022/02/01 07:38:37;;;;;;;11.67;3.00;;;2.30;80.40;;;0.70;81.15;98148.09;5092527;28;20943;-79
2022/02/01 07:41:04;;;;;;;12.53;3.17;;;2.20;79.40;;;0.70;81.26;98143.59;5092523;28;20443;-78
2022/02/01 07:43:33;;;;;;;20.70;4.67;;;2.30;79.70;;;0.72;81.33;98142.63;5092583;28;20499;-77
2022/02/01 07:46:06;;;;;;;11.77;3.77;;;2.30;79.70;;;0.78;80.80;98156.16;5093797;28;20516;-76
2022/02/01 07:48:33;;;;;;;17.43;3.27;;;2.30;79.30;;;0.79;80.05;98147.19;5096058;28;20452;-76
2022/02/01 07:51:00;;;;;;;13.47;3.20;;;2.40;78.50;;;0.82;79.94;98160.19;5092727;28;20459;-74
2022/02/01 07:53:27;;;;;;;13.90;2.40;;;2.40;78.40;;;0.80;79.10;98169.31;5093681;28;20508;-77
2022/02/01 07:55:54;;;;;;;8.20;3.13;;;2.40;77.80;;;0.79;78.95;98171.13;5092410;28;20527;-78
2022/02/01 07:58:21;;;;;;;13.18;4.05;;;2.40;77.60;;;0.87;78.79;98173.03;5092986;28;20444;-76
2022/02/01 08:00:49;;;;;;;13.20;3.50;;;2.40;77.50;;;0.82;78.90;98184.13;5093749;28;20355;-75
2022/02/01 08:03:16;;;;;;;13.30;2.60;;;2.40;77.50;;;0.82;78.27;98189.44;5110870;28;20449;-77
2022/02/01 08:05:43;;;;;;;11.60;3.57;;;2.40;77.10;;;0.86;78.64;98183.84;5093526;28;20460;-76
2022/02/01 08:08:11;;;;;;;9.70;3.57;;;2.40;77.40;;;0.83;79.12;98185.81;5094113;28;20446;-75
2022/02/01 08:10:43;;;;;;;9.10;3.03;;;2.40;77.50;;;0.95;79.74;98193.56;5093774;28;20433;-76
2022/02/01 08:18:59;;;;;;;15.20;4.10;;;2.40;77.40;;;0.94;79.29;98199.88;5093767;28;20474;-79
2022/02/01 08:21:29;;;;;;;9.40;3.03;;;2.50;77.70;;;0.91;78.68;98208.19;5094281;28;20439;-79
2022/02/01 08:23:56;;;;;;;13.50;3.00;;;2.50;77.10;;;0.99;79.17;98216.25;5093819;28;20452;-79
2022/02/01 08:26:26;;;;;;;6.77;2.73;;;2.50;77.70;;;1.00;78.29;98204.63;5094082;28;20436;-79
2022/02/01 08:28:53;;;;;;;12.13;3.47;;;2.50;77.00;;;0.87;78.43;98196.16;5096592;28;20449;-79
2022/02/01 08:31:21;;;;;;;9.70;3.20;;;2.50;77.10;;;0.87;79.00;98185.53;5099571;28;20932;-79
2022/02/01 08:33:49;;;;;;;17.77;4.30;;;2.40;77.10;;;0.83;79.38;98147.72;5096271;28;20470;-78
2022/02/01 08:36:15;;;;;;;11.40;3.00;;;2.50;77.70;;;1.02;78.45;98178.69;5097108;28;20499;-78
2022/02/01 08:38:42;;;;;;;6.43;3.17;;;2.60;77.40;;;0.97;79.45;98186.28;5084951;28;20997;-78
2022/02/01 08:41:10;;;;;;;6.93;2.73;;;2.50;77.70;;;1.02;78.81;98188.50;5092429;28;20531;-77
2022/02/01 08:43:37;;;;;;;16.50;4.83;;;2.60;77.60;;;1.03;79.30;98196.34;5092526;28;20440;-77
2022/02/01 08:46:04;;;;;;;7.43;3.77;;;2.60;77.80;;;0.98;79.61;98195.94;5110214;28;20473;-77
2022/02/01 08:48:32;;;;;;;17.40;4.30;;;2.50;77.90;;;0.67;80.16;98127.94;5077140;28;20520;-78
2022/02/01 08:51:07;;;;;;;15.33;4.90;;;2.60;78.10;;;1.01;80.35;98177.03;5074208;28;20533;-78
2022/02/01 08:53:46;;;;;;;10.80;3.77;;;2.60;78.60;;;1.12;79.27;98184.78;5075233;28;20474;-79
2022/02/01 08:58:55;;;;;;;13.90;4.80;;;2.70;78.30;;;1.10;79.87;98176.09;5091370;28;20456;-76
2022/02/01 09:01:22;;;;;;;16.60;5.38;;;2.60;78.30;;;1.23;79.70;98169.59;5095271;28;20504;-78
2022/02/01 09:03:50;;;;;;;14.80;5.22;;;2.70;78.40;;;1.41;79.76;98178.41;5095774;28;20452;-78
2022/02/01 09:06:17;;;;;;;13.30;4.83;;;2.80;78.40;;;1.44;78.91;98187.06;5105541;28;20275;-82
2022/02/01 09:08:44;;;;;;;15.70;5.37;;;2.90;77.90;;;1.31;79.01;98175.00;5085136;28;20454;-76
2022/02/01 09:11:14;;;;;;;12.87;4.23;;;2.90;77.70;;;1.31;79.79;98192.78;5085164;28;20456;-77
2022/02/01 09:13:42;;;;;;;10.53;4.33;;;2.90;78.30;;;1.26;79.75;98190.56;5093644;28;20498;-75
2022/02/01 09:16:09;;;;;;;19.03;4.17;;;2.80;78.20;;;1.30;80.09;98191.97;5107733;28;20434;-76
2022/02/01 09:18:37;;;;;;;14.73;4.20;;;2.80;78.60;;;1.32;79.77;98192.63;5113384;28;20550;-76
2022/02/01 09:21:05;;;;;;;9.53;3.67;;;2.80;78.30;;;1.37;79.90;98197.50;5100963;28;20488;-77
2022/02/01 09:23:34;;;;;;;14.37;3.70;;;2.90;78.60;;;1.35;79.44;98184.34;5097160;28;20462;-75
2022/02/01 09:26:01;;;;;;;9.13;3.17;;;2.90;78.50;;;1.40;78.91;98190.03;5113250;28;20503;-75
2022/02/01 09:28:28;;;;;;;17.20;5.10;;;2.90;78.10;;;1.58;78.68;98191.84;5096433;28;20465;-78
2022/02/01 09:30:55;;;;;;;9.33;4.53;;;3.10;78.20;;;1.64;79.17;98199.25;5096814;28;20443;-76
2022/02/01 09:33:22;;;;;;;17.93;4.80;;;3.10;78.50;;;1.65;78.53;98200.06;5096129;28;20523;-77
2022/02/01 09:35:49;;;;;;;9.50;3.50;;;3.10;77.90;;;1.65;77.98;98206.25;5096273;28;20450;-77
2022/02/01 09:38:18;;;;;;;14.90;3.97;;;3.10;77.60;;;1.75;77.65;98200.81;5095979;28;20563;-75
2022/02/01 09:40:46;;;;;;;8.40;3.43;;;3.20;77.40;;;1.67;77.15;98193.59;5094006;28;20434;-75
2022/02/01 09:43:14;;;;;;;11.20;4.87;;;3.20;77.00;;;1.79;77.63;98191.53;5094457;28;20459;-74
2022/02/01 09:45:41;;;;;;;9.70;3.50;;;3.20;77.30;;;1.94;77.01;98172.31;5094363;28;20537;-75
2022/02/01 09:48:09;;;;;;;14.33;4.60;;;3.40;77.20;;;2.04;77.93;98172.19;5111613;28;20438;-75
2022/02/01 09:50:36;;;;;;;9.20;4.17;;;3.50;77.50;;;2.21;76.88;98181.16;5095829;28;20533;-73
2022/02/01 09:53:04;;;;;;;7.70;3.00;;;3.60;76.90;;;1.74;75.64;98126.38;5095777;28;20798;-73
2022/02/01 09:55:33;;;;;;;12.60;3.50;;;3.60;75.70;;;2.16;76.65;98178.94;5094913;28;20441;-74
2022/02/01 09:58:01;;;;;;;9.50;3.50;;;3.60;76.50;;;2.20;76.06;98188.31;5095629;28;20471;-83
2022/02/01 10:00:44;;;;;;;12.65;5.03;;;3.70;76.20;;;2.26;75.17;98184.16;5094395;28;20431;-77
2022/02/01 10:03:16;;;;;;;12.13;3.13;;;3.80;75.80;;;1.91;75.51;98186.81;5111927;28;20205;-76
2022/02/01 10:05:44;;;;;;;5.40;2.77;;;3.50;75.30;;;1.87;75.46;98177.41;5094603;28;20446;-76
2022/02/01 10:08:14;;;;;;;10.63;2.63;;;3.40;75.50;;;1.85;75.91;98163.41;5095328;28;20426;-76
2022/02/01 10:10:43;;;;;;;9.83;2.80;;;3.30;75.60;;;1.96;75.94;98160.50;5095321;28;20445;-76
2022/02/01 10:13:14;;;;;;;11.67;3.20;;;3.50;76.10;;;2.06;76.95;98147.06;5093768;28;20930;-77
2022/02/01 10:15:53;;;;;;;10.07;3.80;;;3.50;76.30;;;2.47;75.51;98159.75;5111132;28;20447;-76
2022/02/01 10:18:28;;;;;;;7.63;2.50;;;3.80;76.10;;;2.29;74.83;98156.34;5095731;28;20462;-77
2022/02/01 10:20:56;;;;;;;8.60;2.20;;;3.80;75.00;;;2.30;74.46;98144.69;5128325;27;20892;-78
2022/02/01 10:23:26;;;;;;;9.33;2.33;;;3.80;74.80;;;2.33;74.94;98141.69;5094352;28;20529;-78
2022/02/01 10:26:07;;;;;;;9.37;2.87;;;3.80;75.00;;;2.20;74.00;98144.81;5095406;28;20444;-75
2022/02/01 10:31:31;;;;;;;7.20;2.30;;;3.60;74.20;;;2.22;73.40;98137.50;5109572;28;20450;-77
2022/02/01 10:34:04;;;;;;;9.63;2.70;;;3.70;74.20;;;2.28;73.91;98133.34;5094221;28;20866;-77
2022/02/01 10:36:37;;;;;;;10.10;2.97;;;3.80;74.20;;;2.62;73.10;98141.34;5113168;28;20534;-80
2022/02/01 10:39:17;;;;;;;6.50;2.93;;;4.00;73.80;;;2.41;71.80;98128.41;5096022;28;21019;-78
2022/02/01 10:41:55;;;;;;;12.10;3.03;;;4.00;72.30;;;2.57;72.46;98135.63;5094170;28;20442;-79
2022/02/01 10:44:23;;;;;;;6.90;1.20;;;4.00;73.00;;;2.45;71.21;98111.09;5094244;28;20444;-77
2022/02/01 10:46:52;;;;;;;9.43;2.20;;;4.00;71.50;;;2.44;70.96;98112.09;5127378;27;20534;-77
2022/02/01 10:49:28;;;;;;;5.77;2.00;;;4.00;71.80;;;2.62;70.93;98117.31;5094061;28;20450;-78
2022/02/01 10:52:04;;;;;;;5.03;1.70;;;4.10;71.50;;;2.72;70.86;98100.31;5094668;28;20903;-77
2022/02/01 10:54:33;;;;;;;5.13;1.67;;;4.20;72.00;;;2.74;70.86;98088.50;5094917;28;20443;-77
2022/02/01 10:57:03;;;;;;;10.93;2.63;;;4.20;71.30;;;2.86;70.61;98078.34;5094070;28;20469;-76
2022/02/01 10:59:31;;;;;;;12.67;2.67;;;4.30;71.30;;;2.99;70.07;98075.19;5094164;28;20560;-77
2022/02/01 11:02:01;;;;;;;11.40;2.73;;;4.40;70.90;;;2.87;70.57;98077.34;5092948;28;20820;-77
2022/02/01 11:04:30;;;;;;;13.47;2.80;;;4.40;71.40;;;2.74;70.72;98061.00;5110337;28;20431;-74
2022/02/01 11:06:57;;;;;;;4.27;1.93;;;4.30;71.20;;;2.66;71.20;98072.50;5092575;28;20492;-75
2022/02/01 11:09:28;;;;;;;11.40;2.67;;;4.20;71.40;;;2.67;72.25;98066.16;5092959;28;20601;-76
2022/02/01 11:11:59;;;;;;;5.53;2.00;;;4.20;72.60;;;2.57;72.57;98057.44;5094793;28;20517;-77
2022/02/01 11:14:27;;;;;;;8.37;3.13;;;4.10;72.20;;;2.56;73.10;98048.59;5095456;28;20441;-81
2022/02/01 11:17:14;;;;;;;4.43;2.20;;;4.10;73.10;;;2.60;72.91;98043.78;5093839;28;20483;-78
2022/02/01 11:19:51;;;;;;;11.23;2.90;;;4.10;72.60;;;2.68;72.94;98054.47;5094928;28;20491;-79
2022/02/01 11:22:25;;;;;;;8.00;3.23;;;4.20;72.80;;;2.39;73.04;98031.75;5092979;28;20455;-79
2022/02/01 11:24:56;;;;;;;7.70;2.80;;;4.00;72.60;;;2.55;73.30;98034.44;5093728;28;20443;-79
2022/02/01 11:27:42;;;;;;;9.83;3.70;;;4.00;73.10;;;2.77;72.86;98029.47;5096350;28;20744;-78
2022/02/01 11:30:13;;;;;;;7.27;2.77;;;4.10;73.20;;;2.65;73.15;98025.44;5094714;28;20460;-80
2022/02/01 11:32:48;;;;;;;6.23;2.57;;;4.10;72.80;;;2.71;72.10;98027.47;5094685;28;20527;-80
2022/02/01 11:35:22;;;;;;;5.50;2.43;;;4.20;72.50;;;2.72;71.64;97999.78;5111126;28;20427;-79
2022/02/01 11:37:51;;;;;;;17.50;4.27;;;4.30;72.00;;;2.70;72.85;98017.78;5093524;28;20459;-79
2022/02/01 11:40:22;;;;;;;7.27;2.77;;;4.20;72.50;;;2.78;72.15;97999.09;5093886;28;20442;-79
2022/02/01 11:43:00;;;;;;;6.20;2.37;;;4.30;72.40;;;2.77;72.05;97996.63;5092684;28;20448;-79
2022/02/01 11:45:34;;;;;;;7.50;3.90;;;4.30;72.20;;;2.63;72.42;97998.94;5111470;28;20532;-79
2022/02/01 11:48:04;;;;;;;8.07;2.80;;;4.20;72.30;;;2.60;73.03;97995.75;5094153;28;20512;-79